createdAt,value
2024-02-16T00:01:18.392Z,13.36
2024-02-16T00:06:20.181Z,12.98
2024-02-16T00:11:22.507Z,12.64
2024-02-16T00:16:24.200Z,12.98
2024-02-16T00:21:25.940Z,13.63
2024-02-16T00:26:27.780Z,12.80
2024-02-16T00:31:29.559Z,13.05
2024-02-16T00:36:32.052Z,12.46
2024-02-16T00:41:33.906Z,12.94
2024-02-16T00:46:37.361Z,12.61
2024-02-16T00:51:39.424Z,13.61
2024-02-16T00:56:41.074Z,13.39
2024-02-16T01:01:42.694Z,13.05
2024-02-16T01:06:44.349Z,13.98
2024-02-16T01:11:46.073Z,13.21
2024-02-16T01:16:47.881Z,13.19
2024-02-16T01:21:53.507Z,13.69
2024-02-16T01:26:55.562Z,13.86
2024-02-16T01:31:57.335Z,12.76
2024-02-16T01:36:58.970Z,12.96
2024-02-16T01:42:00.723Z,12.47
2024-02-16T01:47:05.534Z,12.21
2024-02-16T01:52:07.748Z,12.87
2024-02-16T01:57:12.160Z,13.29
2024-02-16T02:02:14.062Z,13.26
2024-02-16T02:07:16.806Z,13.14
2024-02-16T02:12:19.546Z,13.28
2024-02-16T02:17:21.293Z,12.57
2024-02-16T02:22:23.423Z,13.07
2024-02-16T02:27:25.160Z,13.15
2024-02-16T02:32:26.895Z,13.22
2024-02-16T02:37:28.553Z,12.98
2024-02-16T02:42:30.229Z,12.65
2024-02-16T02:47:31.952Z,13.56
2024-02-16T02:52:33.618Z,14.05
2024-02-16T02:57:35.271Z,14.24
2024-02-16T03:02:38.374Z,13.88
2024-02-16T03:07:40.097Z,13.42
2024-02-16T03:12:41.722Z,13.75
2024-02-16T03:17:43.442Z,13.58
2024-02-16T03:22:45.109Z,13.87
2024-02-16T03:27:46.862Z,14.24
2024-02-16T03:32:51.997Z,13.39
2024-02-16T03:37:53.735Z,13.02
2024-02-16T03:42:55.572Z,12.85
2024-02-16T03:47:57.440Z,13.33
2024-02-16T03:53:00.718Z,13.56
2024-02-16T03:58:02.976Z,13.60
2024-02-16T04:03:05.758Z,12.87
2024-02-16T04:08:07.947Z,11.68
2024-02-16T04:13:09.691Z,13.22
2024-02-16T04:18:11.545Z,13.16
2024-02-16T04:23:13.320Z,12.78
2024-02-16T04:28:15.037Z,11.55
2024-02-16T04:33:16.802Z,10.20
2024-02-16T04:38:19.441Z,11.47
2024-02-16T04:43:21.089Z,11.53
2024-02-16T04:48:22.900Z,11.16
2024-02-16T04:53:24.686Z,11.54
2024-02-16T04:58:26.504Z,12.02
2024-02-16T05:03:28.326Z,12.25
2024-02-16T05:08:30.034Z,12.54
2024-02-16T05:13:31.759Z,11.85
2024-02-16T05:18:33.577Z,9.87
2024-02-16T05:23:35.244Z,10.99
2024-02-16T05:28:36.914Z,11.26
2024-02-16T05:33:38.620Z,11.70
2024-02-16T05:38:44.526Z,11.53
2024-02-16T05:43:46.151Z,11.16
2024-02-16T05:48:47.938Z,10.51
2024-02-16T05:53:49.669Z,9.77
2024-02-16T05:58:51.457Z,9.75
2024-02-16T06:03:53.078Z,10.56
2024-02-16T06:08:54.723Z,10.62
2024-02-16T06:13:56.689Z,9.56
2024-02-16T06:18:58.460Z,9.02
2024-02-16T06:24:00.121Z,10.82
2024-02-16T06:29:02.054Z,10.29
2024-02-16T06:34:04.402Z,10.01
2024-02-16T06:39:06.208Z,8.67
2024-02-16T06:44:07.885Z,8.87
2024-02-16T06:49:09.658Z,8.28
2024-02-16T06:54:11.504Z,9.78
2024-02-16T06:59:13.203Z,11.55
2024-02-16T07:04:15.903Z,11.16
2024-02-16T07:09:17.603Z,10.52
2024-02-16T07:14:19.668Z,10.52
2024-02-16T07:19:21.439Z,8.99
2024-02-16T07:24:23.191Z,9.38
2024-02-16T07:29:24.890Z,9.83
2024-02-16T07:34:26.855Z,11.35
2024-02-16T07:39:28.567Z,11.31
2024-02-16T07:44:30.225Z,11.50
2024-02-16T07:49:32.292Z,11.23
2024-02-16T07:54:34.035Z,12.12
2024-02-16T07:59:35.739Z,11.25
2024-02-16T08:04:37.355Z,12.68
2024-02-16T08:09:39.103Z,12.23
2024-02-16T08:14:41.331Z,11.96
2024-02-16T08:19:43.106Z,12.32
2024-02-16T08:24:47.376Z,11.64
2024-02-16T08:29:49.101Z,11.89
2024-02-16T08:34:51.419Z,11.54
2024-02-16T08:39:54.011Z,11.33
2024-02-16T08:44:55.639Z,12.21
2024-02-16T08:49:57.308Z,13.22
2024-02-16T08:54:58.926Z,11.96
2024-02-16T09:00:00.704Z,12.62
2024-02-16T09:05:02.555Z,11.78
2024-02-16T09:10:05.638Z,12.18
2024-02-16T09:15:07.969Z,12.49
2024-02-16T09:20:10.360Z,12.03
2024-02-16T09:25:12.186Z,11.73
2024-02-16T09:30:14.445Z,12.44
2024-02-16T09:35:16.222Z,12.10
2024-02-16T09:40:19.538Z,12.28
2024-02-16T09:45:21.505Z,13.24
2024-02-16T09:50:23.307Z,13.29
2024-02-16T09:55:25.826Z,13.58
2024-02-16T10:00:27.982Z,13.09
2024-02-16T10:05:31.981Z,14.25
2024-02-16T10:10:38.336Z,14.66
2024-02-16T10:15:39.970Z,13.96
2024-02-16T10:20:42.338Z,14.80
2024-02-16T10:25:44.381Z,14.97
2024-02-16T10:30:46.635Z,15.27
2024-02-16T10:35:50.263Z,15.21
2024-02-16T10:40:52.904Z,14.44
2024-02-16T10:45:55.927Z,15.32
2024-02-16T10:50:58.793Z,15.86
2024-02-16T10:56:02.391Z,15.24
2024-02-16T11:06:23.185Z,14.26
2024-02-16T11:11:25.355Z,14.16
2024-02-16T11:16:29.122Z,13.88
2024-02-16T11:21:32.481Z,15.14
2024-02-16T11:26:43.567Z,14.66
2024-02-16T11:31:45.369Z,14.06
2024-02-16T11:36:47.168Z,14.93
2024-02-16T11:41:48.848Z,14.67
2024-02-16T11:46:54.938Z,14.50
2024-02-16T11:51:57.769Z,15.02
2024-02-16T11:56:59.511Z,13.29
2024-02-16T12:02:01.158Z,13.58
2024-02-16T12:07:05.705Z,14.44
2024-02-16T12:12:08.145Z,13.81
2024-02-16T12:17:09.759Z,15.12
2024-02-16T12:22:11.359Z,14.82
2024-02-16T12:27:13.420Z,14.95
2024-02-16T12:32:20.134Z,14.28
2024-02-16T12:37:23.358Z,14.50
2024-02-16T12:42:25.301Z,14.59
2024-02-16T12:47:27.016Z,14.32
2024-02-16T12:52:28.648Z,15.04
2024-02-16T12:57:30.555Z,14.68
2024-02-16T13:02:32.321Z,15.18
2024-02-16T13:07:33.977Z,14.04
2024-02-16T13:12:36.455Z,14.86
2024-02-16T13:17:38.143Z,14.94
2024-02-16T13:22:40.371Z,14.87
2024-02-16T13:27:42.074Z,14.74
2024-02-16T13:32:43.804Z,15.18
2024-02-16T13:37:45.502Z,14.48
2024-02-16T13:42:47.252Z,14.40
2024-02-16T13:47:48.838Z,13.97
2024-02-16T13:52:51.010Z,13.95
2024-02-16T13:57:52.607Z,14.54
2024-02-16T14:02:54.244Z,15.22
2024-02-16T14:08:00.631Z,15.27
2024-02-16T14:13:03.530Z,14.44
2024-02-16T14:18:11.371Z,14.53
2024-02-16T14:23:16.366Z,14.83
2024-02-16T14:28:18.011Z,14.56
2024-02-16T14:33:26.621Z,13.72
2024-02-16T14:38:34.212Z,13.46
2024-02-16T14:43:36.126Z,14.07
2024-02-16T14:48:38.220Z,13.73
2024-02-16T14:53:39.886Z,14.57
2024-02-16T14:58:41.782Z,14.14
2024-02-16T15:03:43.560Z,13.94
2024-02-16T15:08:45.291Z,13.04
2024-02-16T15:13:46.949Z,13.35
2024-02-16T15:18:48.690Z,13.43
2024-02-16T15:23:50.400Z,13.03
2024-02-16T15:28:52.016Z,13.19
2024-02-16T15:33:53.891Z,13.56
2024-02-16T15:38:55.854Z,13.46
2024-02-16T15:43:57.716Z,13.15
2024-02-16T15:48:59.391Z,12.62
2024-02-16T15:54:02.463Z,12.14
2024-02-16T15:59:04.083Z,13.73
2024-02-16T16:04:06.347Z,13.47
2024-02-16T16:09:09.979Z,13.27
2024-02-16T16:14:11.964Z,13.31
2024-02-16T16:19:13.604Z,12.85
2024-02-16T16:24:15.396Z,12.68
2024-02-16T16:29:17.042Z,13.57
2024-02-16T16:34:18.694Z,14.34
2024-02-16T16:39:20.313Z,14.02
2024-02-16T16:44:23.752Z,13.06
2024-02-16T16:49:26.273Z,13.18
2024-02-16T16:54:28.001Z,13.40
2024-02-16T16:59:29.800Z,14.13
2024-02-16T17:04:35.158Z,14.32
2024-02-16T17:09:36.955Z,13.77
2024-02-16T17:14:40.640Z,13.46
2024-02-16T17:19:42.650Z,14.00
2024-02-16T17:24:44.392Z,12.98
2024-02-16T17:29:47.364Z,13.89
2024-02-16T17:34:49.116Z,14.04
2024-02-16T17:39:52.935Z,12.98
2024-02-16T17:44:56.372Z,14.06
2024-02-16T17:49:58.130Z,14.38
2024-02-16T17:55:06.805Z,14.54
2024-02-16T18:00:11.202Z,15.00
2024-02-16T18:05:16.280Z,14.03
2024-02-16T18:10:18.393Z,14.12
2024-02-16T18:15:20.233Z,13.62
2024-02-16T18:20:22.857Z,13.86
2024-02-16T18:25:24.516Z,13.80
2024-02-16T18:30:26.563Z,13.67
2024-02-16T18:35:28.389Z,13.71
2024-02-16T18:40:30.323Z,13.22
2024-02-16T18:45:32.038Z,13.20
2024-02-16T18:50:33.784Z,13.12
2024-02-16T18:55:35.895Z,12.96
2024-02-16T19:00:38.754Z,14.97
2024-02-16T19:05:40.601Z,13.52
2024-02-16T19:10:43.639Z,14.04
2024-02-16T19:15:45.432Z,14.06
2024-02-16T19:20:47.099Z,14.36
2024-02-16T19:25:48.834Z,13.83
2024-02-16T19:30:50.645Z,13.57
2024-02-16T19:35:53.554Z,13.84
2024-02-16T19:40:55.301Z,13.51
2024-02-16T19:45:57.274Z,13.98
2024-02-16T19:50:59.233Z,13.06
2024-02-16T19:56:01.855Z,13.70
2024-02-16T20:01:03.731Z,13.57
2024-02-16T20:06:07.427Z,13.57
2024-02-16T20:11:09.513Z,13.19
2024-02-16T20:16:11.327Z,13.29
2024-02-16T20:21:13.528Z,14.24
2024-02-16T20:26:22.840Z,13.78
2024-02-16T20:31:25.054Z,13.90
2024-02-16T20:36:26.838Z,12.25
2024-02-16T20:41:29.571Z,12.88
2024-02-16T20:46:31.293Z,13.86
2024-02-16T20:51:33.052Z,12.99
2024-02-16T20:56:34.781Z,13.17
2024-02-16T21:01:36.742Z,13.43
2024-02-16T21:06:42.080Z,12.67
2024-02-16T21:11:44.097Z,13.54
2024-02-16T21:16:48.527Z,12.90
2024-02-16T21:21:50.698Z,13.48
2024-02-16T21:26:52.615Z,12.03
2024-02-16T21:31:54.310Z,14.01
2024-02-16T21:36:58.938Z,13.53
2024-02-16T21:42:00.895Z,12.98
2024-02-16T21:47:05.363Z,13.46
2024-02-16T21:52:07.764Z,13.80
2024-02-16T21:57:09.521Z,12.36
2024-02-16T22:02:11.281Z,13.48
2024-02-16T22:07:14.110Z,13.47
2024-02-16T22:12:15.975Z,13.12
2024-02-16T22:17:17.643Z,13.66
2024-02-16T22:22:19.681Z,13.15
2024-02-16T22:27:21.541Z,13.37
2024-02-16T22:32:23.243Z,13.12
2024-02-16T22:37:24.940Z,13.53
2024-02-16T22:42:26.661Z,13.65
2024-02-16T22:47:28.424Z,14.00
2024-02-16T22:52:30.125Z,13.71
2024-02-16T22:57:31.966Z,13.14
2024-02-16T23:02:33.776Z,13.85
2024-02-16T23:07:35.950Z,14.50
2024-02-16T23:12:37.944Z,13.98
2024-02-16T23:17:39.895Z,13.36
2024-02-16T23:23:03.816Z,13.51
2024-02-16T23:28:06.116Z,12.55
2024-02-16T23:33:10.225Z,12.57
2024-02-16T23:38:12.771Z,13.35
2024-02-16T23:43:15.506Z,13.29
2024-02-16T23:48:17.306Z,13.45
2024-02-16T23:53:19.093Z,13.55
2024-02-16T23:58:21.344Z,14.31
